Time,TemperatureF,DewpointF,PressureIn,WindDirection,WindDirectionDegrees,WindSpeedMPH,WindSpeedGustMPH,Humidity,HourlyPrecipIn,Conditions,Clouds,dailyrainin,SoftwareType,DateUTC
2013-06-16 00:01:00,75.0,32.0,30.08,NNW,331,11.0,21.0,21,0.00,,,-99.99,,2013-06-16 06:01:00,
2013-06-16 00:11:00,75.0,32.0,30.07,NNW,327,8.0,21.0,21,0.00,,,-99.99,,2013-06-16 06:11:00,
2013-06-16 00:22:00,75.0,34.0,30.08,NW,322,11.0,18.0,22,0.00,,,-99.99,,2013-06-16 06:22:00,
2013-06-16 00:33:00,75.0,34.0,30.08,NNW,336,12.0,17.0,22,0.00,,,-99.99,,2013-06-16 06:33:00,
2013-06-16 00:43:00,74.0,34.0,30.08,NW,322,6.0,17.0,23,0.00,,,-99.99,,2013-06-16 06:43:00,
2013-06-16 00:52:00,74.0,35.0,30.09,NNW,338,8.0,10.0,24,0.00,,,-99.99,,2013-06-16 06:52:00,
2013-06-16 01:01:00,74.0,36.0,30.08,NNW,343,13.0,13.0,25,0.00,,,-99.99,,2013-06-16 07:01:00,
2013-06-16 01:11:00,74.0,37.0,30.09,NNE,18,6.0,10.0,26,0.00,,,-99.99,,2013-06-16 07:11:00,
2013-06-16 01:22:00,74.0,37.0,30.09,North,358,7.0,9.0,26,0.00,,,-99.99,,2013-06-16 07:22:00,
2013-06-16 01:32:00,74.0,37.0,30.09,North,351,7.0,11.0,26,0.00,,,-99.99,,2013-06-16 07:32:00,
2013-06-16 01:43:00,73.0,37.0,30.09,NNE,29,5.0,10.0,27,0.00,,,-99.99,,2013-06-16 07:43:00,
2013-06-16 01:53:00,73.0,39.0,30.09,North,1,13.0,18.0,29,0.00,,,-99.99,,2013-06-16 07:53:00,
2013-06-16 02:02:00,71.0,40.0,30.09,NNE,21,12.0,21.0,32,0.00,,,-99.99,,2013-06-16 08:02:00,
2013-06-16 02:11:00,71.0,40.0,30.09,North,8,9.0,21.0,33,0.00,,,-99.99,,2013-06-16 08:11:00,
2013-06-16 02:22:00,71.0,40.0,30.09,NE,42,8.0,10.0,33,0.00,,,-99.99,,2013-06-16 08:22:00,
2013-06-16 02:33:00,71.0,40.0,30.09,NE,36,8.0,9.0,33,0.00,,,-99.99,,2013-06-16 08:33:00,
2013-06-16 02:43:00,71.0,40.0,30.07,NE,42,4.0,7.0,33,0.00,,,-99.99,,2013-06-16 08:43:00,
2013-06-16 02:54:00,71.0,40.0,30.07,NE,49,4.0,7.0,32,0.00,,,-99.99,,2013-06-16 08:54:00,
2013-06-16 03:01:00,71.0,40.0,30.07,NNE,19,0.0,0.0,33,0.00,,,-99.99,,2013-06-16 09:01:00,
2013-06-16 03:11:00,70.0,40.0,30.06,NNE,19,0.0,0.0,34,0.00,,,-99.99,,2013-06-16 09:11:00,
2013-06-16 03:22:00,70.0,40.0,30.05,SE,143,9.0,9.0,33,0.00,,,-99.99,,2013-06-16 09:22:00,
2013-06-16 03:33:00,71.0,40.0,30.04,SE,140,7.0,11.0,32,0.00,,,-99.99,,2013-06-16 09:33:00,
2013-06-16 03:42:00,71.0,40.0,30.04,SE,133,3.0,9.0,32,0.00,,,-99.99,,2013-06-16 09:42:00,
2013-06-16 03:52:00,71.0,40.0,30.04,SE,130,3.0,7.0,32,0.00,,,-99.99,,2013-06-16 09:52:00,
2013-06-16 04:01:00,72.0,39.0,30.03,SE,135,4.0,7.0,30,0.00,,,-99.99,,2013-06-16 10:01:00,
2013-06-16 04:12:00,71.0,38.0,30.03,East,99,5.0,5.0,30,0.00,,,-99.99,,2013-06-16 10:12:00,
2013-06-16 04:22:00,71.0,39.0,30.03,SE,144,6.0,6.0,31,0.00,,,-99.99,,2013-06-16 10:22:00,
2013-06-16 04:33:00,71.0,39.0,30.05,NNW,338,7.0,7.0,31,0.00,,,-99.99,,2013-06-16 10:33:00,
2013-06-16 04:42:00,70.0,42.0,30.05,NW,323,2.0,4.0,36,0.00,,,-99.99,,2013-06-16 10:42:00,
2013-06-16 04:53:00,69.0,41.0,30.05,NNE,33,3.0,4.0,36,0.00,,,-99.99,,2013-06-16 10:53:00,
2013-06-16 05:02:00,69.0,42.0,30.06,NNE,21,0.0,0.0,37,0.00,,,-99.99,,2013-06-16 11:02:00,
2013-06-16 05:11:00,68.0,41.0,30.06,NNE,21,0.0,0.0,38,0.00,,,-99.99,,2013-06-16 11:11:00,
2013-06-16 05:22:00,68.0,41.0,30.07,NNE,21,0.0,0.0,38,0.00,,,-99.99,,2013-06-16 11:22:00,
2013-06-16 05:33:00,68.0,41.0,30.07,NNE,21,0.0,0.0,38,0.00,,,-99.99,,2013-06-16 11:33:00,
2013-06-16 05:43:00,67.0,41.0,30.08,NNE,21,0.0,0.0,39,0.00,,,-99.99,,2013-06-16 11:43:00,
2013-06-16 05:52:00,66.0,41.0,30.08,NNE,21,0.0,0.0,40,0.00,,,-99.99,,2013-06-16 11:52:00,
2013-06-16 06:02:00,66.0,42.0,30.09,NNE,21,0.0,0.0,41,0.00,,,-99.99,,2013-06-16 12:02:00,
2013-06-16 06:11:00,65.0,43.0,30.09,NNE,21,0.0,0.0,44,0.00,,,-99.99,,2013-06-16 12:11:00,
2013-06-16 06:22:00,65.0,43.0,30.10,NNE,21,0.0,0.0,45,0.00,,,-99.99,,2013-06-16 12:22:00,
2013-06-16 06:32:00,64.0,44.0,30.10,East,98,7.0,9.0,49,0.00,,,-99.99,,2013-06-16 12:32:00,
2013-06-16 06:42:00,64.0,44.0,30.10,East,97,6.0,8.0,48,0.00,,,-99.99,,2013-06-16 12:42:00,
2013-06-16 06:53:00,64.0,42.0,30.10,East,95,7.0,8.0,44,0.00,,,-99.99,,2013-06-16 12:53:00,
2013-06-16 07:01:00,65.0,42.0,30.10,ESE,104,5.0,8.0,43,0.00,,,-99.99,,2013-06-16 13:01:00,
2013-06-16 07:11:00,67.0,41.0,30.11,ESE,108,5.0,5.0,39,0.00,,,-99.99,,2013-06-16 13:11:00,
2013-06-16 07:22:00,67.0,41.0,30.10,East,90,5.0,7.0,39,0.00,,,-99.99,,2013-06-16 13:22:00,
2013-06-16 07:34:00,68.0,43.0,30.10,East,91,5.0,6.0,40,0.00,,,-99.99,,2013-06-16 13:34:00,
2013-06-16 07:42:00,70.0,41.0,30.10,SE,133,4.0,5.0,35,0.00,,,-99.99,,2013-06-16 13:42:00,
2013-06-16 07:53:00,71.0,40.0,30.10,ESE,111,4.0,7.0,33,0.00,,,-99.99,,2013-06-16 13:53:00,
2013-06-16 08:02:00,73.0,41.0,30.10,ESE,102,3.0,5.0,31,0.00,,,-99.99,,2013-06-16 14:02:00,
2013-06-16 08:12:00,73.0,40.0,30.10,SE,129,0.0,5.0,30,0.00,,,-99.99,,2013-06-16 14:12:00,
2013-06-16 08:22:00,74.0,40.0,30.10,ENE,78,1.0,6.0,29,0.00,,,-99.99,,2013-06-16 14:22:00,
2013-06-16 08:34:00,74.0,42.0,30.09,NW,315,3.0,0.0,32,0.00,,,-99.99,,2013-06-16 14:34:00,
2013-06-16 08:43:00,73.0,41.0,30.09,NW,315,4.0,4.0,32,0.00,,,-99.99,,2013-06-16 14:43:00,
2013-06-16 08:52:00,74.0,41.0,30.09,West,261,2.0,5.0,30,0.00,,,-99.99,,2013-06-16 14:52:00,
2013-06-16 09:02:00,74.0,40.0,30.09,NNW,337,0.0,5.0,29,0.00,,,-99.99,,2013-06-16 15:02:00,
2013-06-16 09:12:00,75.0,39.0,30.09,WSW,253,3.0,6.0,27,0.00,,,-99.99,,2013-06-16 15:12:00,
2013-06-16 09:22:00,75.0,39.0,30.09,WSW,246,5.0,7.0,27,0.00,,,-99.99,,2013-06-16 15:22:00,
2013-06-16 09:33:00,75.0,38.0,30.09,WSW,241,3.0,7.0,26,0.00,,,-99.99,,2013-06-16 15:33:00,
2013-06-16 09:43:00,76.0,39.0,30.09,SW,220,6.0,6.0,26,0.00,,,-99.99,,2013-06-16 15:43:00,
2013-06-16 09:52:00,76.0,39.0,30.08,WSW,248,6.0,6.0,26,0.00,,,-99.99,,2013-06-16 15:52:00,
2013-06-16 10:01:00,77.0,39.0,30.08,WNW,295,6.0,7.0,26,0.00,,,-99.99,,2013-06-16 16:01:00,
2013-06-16 10:12:00,77.0,38.0,30.08,NNW,347,0.0,7.0,25,0.00,,,-99.99,,2013-06-16 16:12:00,
2013-06-16 10:22:00,77.0,37.0,30.07,ESE,116,3.0,5.0,24,0.00,,,-99.99,,2013-06-16 16:22:00,
2013-06-16 10:33:00,78.0,37.0,30.07,SW,215,2.0,5.0,23,0.00,,,-99.99,,2013-06-16 16:33:00,
2013-06-16 10:43:00,79.0,37.0,30.06,West,267,3.0,5.0,22,0.00,,,-99.99,,2013-06-16 16:43:00,
2013-06-16 10:53:00,79.0,37.0,30.06,SW,229,1.0,6.0,22,0.00,,,-99.99,,2013-06-16 16:53:00,
2013-06-16 11:01:00,79.0,36.0,30.05,WSW,254,4.0,4.0,21,0.00,,,-99.99,,2013-06-16 17:01:00,
2013-06-16 11:22:00,80.0,34.0,30.04,WNW,288,8.0,8.0,19,0.00,,,-99.99,,2013-06-16 17:22:00,
2013-06-16 11:34:00,80.0,33.0,30.04,WNW,300,3.0,3.0,18,0.00,,,-99.99,,2013-06-16 17:34:00,
2013-06-16 11:43:00,81.0,32.0,30.04,South,191,0.0,9.0,17,0.00,,,-99.99,,2013-06-16 17:43:00,
2013-06-16 11:53:00,82.0,33.0,30.04,NW,312,7.0,7.0,17,0.00,,,-99.99,,2013-06-16 17:53:00,
2013-06-16 15:22:00,88.0,22.0,29.95,North,350,5.0,11.0,9,0.00,,,-99.99,,2013-06-16 21:22:00,
2013-06-16 17:11:00,81.0,36.0,30.00,WNW,282,6.0,13.0,20,0.01,,,-99.99,,2013-06-16 23:11:00,
2013-06-16 17:22:00,82.0,36.0,30.00,WSW,239,7.0,9.0,19,0.01,,,-99.99,,2013-06-16 23:22:00,
2013-06-16 17:32:00,82.0,33.0,29.99,South,174,7.0,8.0,17,0.01,,,-99.99,,2013-06-16 23:32:00,
2013-06-16 17:42:00,82.0,30.0,29.98,SW,232,8.0,16.0,15,0.01,,,-99.99,,2013-06-16 23:42:00,
2013-06-16 17:51:00,82.0,30.0,29.98,SW,232,8.0,16.0,15,0.01,,,-99.99,,2013-06-16 23:51:00,
2013-06-16 18:02:00,83.0,32.0,30.00,WSW,241,12.0,12.0,16,0.01,,,-99.99,,2013-06-17 00:02:00,
2013-06-16 18:11:00,82.0,31.0,30.00,WNW,288,10.0,21.0,16,0.01,,,-99.99,,2013-06-17 00:11:00,
2013-06-16 18:22:00,81.0,31.0,30.00,West,268,8.0,16.0,16,0.01,,,-99.99,,2013-06-17 00:22:00,
2013-06-16 18:32:00,81.0,29.0,29.98,WSW,250,5.0,24.0,15,0.01,,,-99.99,,2013-06-17 00:32:00,
2013-06-16 18:42:00,82.0,30.0,29.97,NNW,327,6.0,6.0,15,0.01,,,-99.99,,2013-06-17 00:42:00,
2013-06-16 18:52:00,83.0,29.0,29.97,SW,222,7.0,22.0,14,0.01,,,-99.99,,2013-06-17 00:52:00,
2013-06-16 19:02:00,83.0,29.0,29.97,SW,217,4.0,9.0,14,0.01,,,-99.99,,2013-06-17 01:02:00,
2013-06-16 19:32:00,83.0,29.0,29.98,WSW,258,7.0,7.0,14,0.01,,,-99.99,,2013-06-17 01:32:00,
2013-06-16 19:43:00,82.0,28.0,29.98,SW,220,3.0,8.0,14,0.01,,,-99.99,,2013-06-17 01:43:00,
2013-06-16 19:53:00,82.0,30.0,29.98,SW,215,5.0,5.0,15,0.01,,,-99.99,,2013-06-17 01:53:00,
2013-06-16 20:02:00,82.0,30.0,29.98,SW,234,4.0,7.0,15,0.01,,,-99.99,,2013-06-17 02:02:00,
2013-06-16 20:12:00,82.0,30.0,29.99,SW,216,2.0,4.0,15,0.01,,,-99.99,,2013-06-17 02:12:00,
2013-06-16 20:22:00,81.0,31.0,30.00,SSW,212,0.0,3.0,16,0.01,,,-99.99,,2013-06-17 02:22:00,
2013-06-16 20:34:00,81.0,32.0,30.01,SW,219,0.0,3.0,17,0.01,,,-99.99,,2013-06-17 02:34:00,
2013-06-16 20:43:00,79.0,36.0,30.03,West,270,13.0,26.0,21,0.01,,,-99.99,,2013-06-17 02:43:00,
2013-06-16 20:53:00,76.0,38.0,30.04,WNW,298,17.0,28.0,25,0.01,,,-99.99,,2013-06-17 02:53:00,
2013-06-16 21:02:00,76.0,37.0,30.03,West,278,8.0,24.0,24,0.01,,,-99.99,,2013-06-17 03:02:00,
2013-06-16 21:12:00,77.0,35.0,30.03,WNW,302,14.0,25.0,22,0.01,,,-99.99,,2013-06-17 03:12:00,
2013-06-16 21:22:00,78.0,34.0,30.04,North,354,7.0,17.0,20,0.01,,,-99.99,,2013-06-17 03:22:00,
2013-06-16 21:53:00,79.0,33.0,30.03,NE,54,7.0,10.0,19,0.01,,,-99.99,,2013-06-17 03:53:00,
2013-06-16 22:02:00,78.0,34.0,30.03,ENE,60,6.0,9.0,20,0.01,,,-99.99,,2013-06-17 04:02:00,
2013-06-16 22:12:00,78.0,34.0,30.03,ENE,68,4.0,7.0,20,0.01,,,-99.99,,2013-06-17 04:12:00,
2013-06-16 22:22:00,77.0,35.0,30.03,SSE,147,4.0,11.0,22,0.01,,,-99.99,,2013-06-17 04:22:00,
2013-06-16 22:34:00,77.0,35.0,30.03,ESE,122,6.0,8.0,22,0.01,,,-99.99,,2013-06-17 04:34:00,
2013-06-16 22:42:00,77.0,35.0,30.03,SE,140,5.0,9.0,22,0.01,,,-99.99,,2013-06-17 04:42:00,
2013-06-16 22:53:00,77.0,35.0,30.03,SE,129,4.0,7.0,22,0.01,,,-99.99,,2013-06-17 04:53:00,
2013-06-16 23:02:00,76.0,37.0,30.03,ESE,112,7.0,7.0,24,0.01,,,-99.99,,2013-06-17 05:02:00,
2013-06-16 23:12:00,76.0,36.0,30.03,SE,125,4.0,9.0,23,0.01,,,-99.99,,2013-06-17 05:12:00,
2013-06-16 23:22:00,76.0,36.0,30.02,SE,129,5.0,6.0,23,0.01,,,-99.99,,2013-06-17 05:22:00,
2013-06-16 23:33:00,74.0,37.0,30.03,ESE,109,3.0,9.0,26,0.01,,,-99.99,,2013-06-17 05:33:00,
2013-06-16 23:44:00,74.0,36.0,30.03,ESE,111,6.0,6.0,25,0.01,,,-99.99,,2013-06-17 05:44:00,
2013-06-16 23:53:00,74.0,36.0,30.03,ESE,104,4.0,7.0,25,0.01,,,-99.99,,2013-06-17 05:53:00,